Time;durP1;ratioP1;P1;durP2;ratioP2;P2;SDS_P1;SDS_P2;PMS_P1;PMS_P2;Temp;Humidity;BMP_temperature;BMP_pressure;BME280_temperature;BME280_humidity;BME280_pressure;Samples;Min_cycle;Max_cycle;Signal;HPM_P1;HPM_P2
2023/05/05 00:01:44;;;;;;;6.13;4.70;;;12.40;1.00;;;;;;4971595;28;20501;-79
2023/05/05 00:04:11;;;;;;;11.23;4.13;;;12.40;1.00;;;;;;4976230;28;20474;-81
2023/05/05 00:06:38;;;;;;;8.57;4.50;;;12.30;1.00;;;;;;4980807;28;20446;-79
2023/05/05 00:09:05;;;;;;;8.43;4.40;;;12.20;1.00;;;;;;4974542;28;20493;-79
2023/05/05 00:11:32;;;;;;;9.83;4.70;;;12.30;1.00;;;;;;4955144;28;20458;-79
2023/05/05 00:14:00;;;;;;;8.20;4.53;;;12.20;1.00;;;;;;4973813;28;20551;-81
2023/05/05 00:16:28;;;;;;;4.60;3.57;;;12.30;1.00;;;;;;4977438;28;20470;-81
2023/05/05 00:18:55;;;;;;;6.63;3.90;;;12.30;1.00;;;;;;4972468;28;20466;-81
2023/05/05 00:21:22;;;;;;;8.17;4.27;;;12.30;1.00;;;;;;4978599;28;20520;-81
2023/05/05 00:23:49;;;;;;;5.17;4.67;;;12.20;1.00;;;;;;4972366;28;20469;-80
2023/05/05 00:26:16;;;;;;;5.57;4.00;;;12.20;1.00;;;;;;4981822;28;20573;-80
2023/05/05 00:28:43;;;;;;;6.30;3.90;;;12.20;1.00;;;;;;4969518;28;20471;-82
2023/05/05 00:31:10;;;;;;;9.60;4.80;;;12.20;1.00;;;;;;4973592;28;20433;-79
2023/05/05 00:33:38;;;;;;;7.23;4.77;;;12.20;1.00;;;;;;4967216;28;20533;-80
2023/05/05 00:36:05;;;;;;;6.23;3.80;;;12.20;1.00;;;;;;4972602;28;20501;-83
2023/05/05 00:38:32;;;;;;;4.13;3.73;;;12.20;1.00;;;;;;4973638;28;20577;-80
2023/05/05 00:40:59;;;;;;;6.63;4.00;;;12.10;1.00;;;;;;4974870;28;20834;-80
2023/05/05 00:43:31;;;;;;;6.10;4.00;;;12.10;1.00;;;;;;4969206;28;20459;-80
2023/05/05 00:46:02;;;;;;;8.93;4.47;;;12.10;1.00;;;;;;4973591;28;20461;-80
2023/05/05 00:48:30;;;;;;;7.20;4.00;;;12.00;1.00;;;;;;4966888;28;20429;-80
2023/05/05 00:50:59;;;;;;;5.53;4.07;;;12.00;1.00;;;;;;4972655;28;20449;-80
2023/05/05 00:53:28;;;;;;;6.10;3.80;;;12.10;1.00;;;;;;4970448;28;20919;-81
2023/05/05 00:55:54;;;;;;;5.90;4.17;;;12.00;1.00;;;;;;4970468;28;20459;-81
2023/05/05 00:58:23;;;;;;;7.77;5.10;;;12.00;1.00;;;;;;4971850;28;20513;-81
2023/05/05 01:00:50;;;;;;;6.63;4.80;;;12.00;1.00;;;;;;4975411;28;20564;-82
2023/05/05 01:03:20;;;;;;;7.87;4.73;;;12.00;1.00;;;;;;4978128;23;20483;-79
2023/05/05 01:06:05;;;;;;;7.00;4.70;;;12.00;1.00;;;;;;5013227;28;20472;-78
2023/05/05 01:08:46;;;;;;;9.57;4.73;;;11.90;1.00;;;;;;5009082;28;20461;-78
2023/05/05 01:11:21;;;;;;;7.60;4.10;;;11.90;1.00;;;;;;5012000;28;20550;-79
2023/05/05 01:13:56;;;;;;;6.93;4.40;;;11.90;1.00;;;;;;5012902;28;20467;-78
2023/05/05 01:16:27;;;;;;;6.73;4.40;;;11.90;1.00;;;;;;5010083;28;20468;-78
2023/05/05 01:19:00;;;;;;;4.83;3.83;;;11.80;1.00;;;;;;5012713;28;20471;-78
2023/05/05 01:21:33;;;;;;;5.70;3.97;;;11.80;1.00;;;;;;5014131;28;20495;-78
2023/05/05 01:24:20;;;;;;;9.10;4.37;;;11.80;1.00;;;;;;5012672;28;20466;-78
2023/05/05 01:27:11;;;;;;;6.30;4.00;;;11.70;1.00;;;;;;5013714;28;20467;-79
2023/05/05 01:29:50;;;;;;;6.80;4.50;;;11.70;1.00;;;;;;5011634;28;20455;-78
2023/05/05 01:32:25;;;;;;;5.40;3.53;;;11.70;1.00;;;;;;5008404;28;20464;-79
2023/05/05 01:35:00;;;;;;;8.17;4.47;;;11.70;1.00;;;;;;5011255;28;20471;-78
2023/05/05 01:37:30;;;;;;;6.97;3.87;;;11.70;1.00;;;;;;5011986;28;20524;-77
2023/05/05 01:40:03;;;;;;;4.30;3.90;;;11.60;1.00;;;;;;5012635;28;20452;-78
2023/05/05 01:42:32;;;;;;;5.30;4.27;;;11.70;1.00;;;;;;5009150;28;20463;-78
2023/05/05 01:45:03;;;;;;;6.60;3.73;;;11.60;1.00;;;;;;5013795;28;20558;-78
2023/05/05 01:47:32;;;;;;;5.93;4.07;;;11.60;1.00;;;;;;5007819;28;20439;-79
2023/05/05 01:50:01;;;;;;;5.13;3.90;;;11.50;1.00;;;;;;5013422;28;20536;-77
2023/05/05 01:52:30;;;;;;;6.80;4.03;;;11.50;1.00;;;;;;5008816;28;20564;-77
2023/05/05 01:54:58;;;;;;;6.43;4.43;;;11.40;1.00;;;;;;5010631;28;20463;-76
2023/05/05 01:57:26;;;;;;;7.57;3.83;;;11.40;1.00;;;;;;5008029;28;20545;-77
2023/05/05 01:59:53;;;;;;;6.40;4.10;;;11.40;1.00;;;;;;5009256;28;20551;-77
2023/05/05 02:02:22;;;;;;;5.07;4.50;;;11.30;1.00;;;;;;5010991;28;20530;-77
2023/05/05 02:04:52;;;;;;;5.70;4.13;;;11.30;1.00;;;;;;5016763;28;20561;-78
2023/05/05 02:07:21;;;;;;;6.67;4.20;;;11.20;1.00;;;;;;5012393;28;20481;-78
2023/05/05 02:09:48;;;;;;;5.97;4.03;;;11.20;1.00;;;;;;5017308;28;20454;-78
2023/05/05 02:12:18;;;;;;;7.20;4.93;;;11.20;1.00;;;;;;5010950;28;20462;-79
2023/05/05 02:14:46;;;;;;;8.30;4.77;;;11.10;1.00;;;;;;5018112;28;20482;-78
2023/05/05 02:17:14;;;;;;;6.30;3.90;;;11.10;1.00;;;;;;5013202;28;20486;-76
2023/05/05 02:19:45;;;;;;;5.07;4.03;;;11.10;1.00;;;;;;5008427;28;20497;-77
2023/05/05 02:22:15;;;;;;;7.80;4.47;;;11.10;1.00;;;;;;5017951;28;20547;-77
2023/05/05 02:24:42;;;;;;;5.77;4.30;;;11.10;1.00;;;;;;5009902;28;20458;-76
2023/05/05 02:27:11;;;;;;;4.97;3.83;;;11.10;1.00;;;;;;5008309;28;20474;-76
2023/05/05 02:29:46;;;;;;;8.20;5.20;;;11.10;1.00;;;;;;5005342;28;20574;-78
2023/05/05 02:32:18;;;;;;;5.10;4.17;;;11.10;1.00;;;;;;5006862;28;21430;-77
2023/05/05 02:34:49;;;;;;;8.80;5.20;;;11.10;1.00;;;;;;5005214;28;20817;-78
2023/05/05 02:39:58;;;;;;;8.43;4.90;;;11.00;1.00;;;;;;5071045;23;20450;-79
2023/05/05 02:42:29;;;;;;;5.20;4.17;;;11.10;1.00;;;;;;4984255;28;20518;-80
2023/05/05 02:44:59;;;;;;;5.63;4.47;;;11.00;1.00;;;;;;4988860;28;20530;-80
2023/05/05 02:47:34;;;;;;;7.80;4.33;;;11.00;1.00;;;;;;4989318;28;21252;-80
2023/05/05 02:50:01;;;;;;;5.03;4.30;;;11.00;1.00;;;;;;4985892;28;20540;-80
2023/05/05 02:52:28;;;;;;;7.80;4.93;;;11.00;1.00;;;;;;4987571;28;20480;-81
2023/05/05 02:54:57;;;;;;;9.43;5.63;;;11.00;1.00;;;;;;4989485;28;20463;-81
2023/05/05 02:57:35;;;;;;;7.10;4.70;;;10.90;1.00;;;;;;4990401;28;20598;-80
2023/05/05 03:00:08;;;;;;;8.03;5.17;;;10.90;1.00;;;;;;4983815;28;20538;-80
2023/05/05 03:02:47;;;;;;;4.97;4.47;;;11.00;1.00;;;;;;4986191;28;20947;-80
2023/05/05 03:05:21;;;;;;;9.47;5.60;;;11.00;1.00;;;;;;4983066;28;20984;-81
2023/05/05 03:07:54;;;;;;;5.60;4.20;;;11.00;1.00;;;;;;4986096;28;21031;-80
2023/05/05 03:10:29;;;;;;;5.53;4.50;;;10.90;1.00;;;;;;4985609;28;20548;-80
2023/05/05 03:12:59;;;;;;;6.57;4.63;;;11.00;1.00;;;;;;4975609;28;20464;-80
2023/05/05 03:15:29;;;;;;;6.87;4.53;;;10.90;1.00;;;;;;4967095;28;20471;-80
2023/05/05 03:17:58;;;;;;;4.87;4.10;;;10.90;1.00;;;;;;4984911;28;20467;-81
2023/05/05 03:20:26;;;;;;;5.57;4.20;;;10.90;1.00;;;;;;4988918;28;20451;-80
2023/05/05 03:22:55;;;;;;;6.60;4.70;;;10.80;1.00;;;;;;4985888;28;20448;-80
2023/05/05 03:25:40;;;;;;;14.60;6.53;;;10.80;1.00;;;;;;4983768;28;20519;-80
2023/05/05 03:28:08;;;;;;;8.57;5.73;;;10.80;1.00;;;;;;4991369;28;20423;-80
2023/05/05 03:30:35;;;;;;;7.17;5.23;;;10.80;1.00;;;;;;4986926;28;20978;-80
2023/05/05 03:33:02;;;;;;;7.57;5.10;;;10.80;1.00;;;;;;4988157;28;20431;-80
2023/05/05 03:35:30;;;;;;;6.57;5.80;;;10.70;1.00;;;;;;4988122;28;20487;-80
2023/05/05 03:37:57;;;;;;;8.13;5.10;;;10.70;1.00;;;;;;4988904;28;20483;-81
2023/05/05 03:40:25;;;;;;;6.83;5.30;;;10.70;1.00;;;;;;4988829;28;20517;-81
2023/05/05 03:42:53;;;;;;;7.47;4.50;;;10.70;1.00;;;;;;4987685;28;20459;-80
2023/05/05 03:45:20;;;;;;;7.70;5.40;;;10.60;1.00;;;;;;4996380;28;20467;-81
2023/05/05 03:47:47;;;;;;;8.03;5.17;;;10.60;1.00;;;;;;4986505;28;20515;-81
2023/05/05 03:50:14;;;;;;;4.73;4.20;;;10.60;1.00;;;;;;4986382;28;20452;-81
2023/05/05 03:52:43;;;;;;;6.97;4.83;;;10.60;1.00;;;;;;4988732;28;20467;-81
2023/05/05 03:55:10;;;;;;;8.60;5.17;;;10.60;1.00;;;;;;4993155;28;20467;-81
2023/05/05 03:57:39;;;;;;;4.70;4.30;;;10.60;1.00;;;;;;4991240;28;20437;-81
2023/05/05 04:00:10;;;;;;;9.63;5.13;;;10.60;1.00;;;;;;4986925;28;20512;-80
2023/05/05 04:02:38;;;;;;;6.60;5.30;;;10.60;1.00;;;;;;4990606;28;20473;-79
2023/05/05 04:05:05;;;;;;;10.23;5.27;;;10.60;1.00;;;;;;4982640;28;20554;-80
2023/05/05 04:07:32;;;;;;;11.30;6.33;;;10.60;1.00;;;;;;4989966;28;20431;-81
2023/05/05 04:09:59;;;;;;;11.27;7.30;;;10.60;1.00;;;;;;4985895;28;20587;-80
2023/05/05 04:12:26;;;;;;;6.60;5.67;;;10.60;1.00;;;;;;4984907;28;20479;-80
2023/05/05 04:14:54;;;;;;;7.00;5.57;;;10.50;1.00;;;;;;4989252;28;20555;-80
2023/05/05 04:17:21;;;;;;;7.80;6.23;;;10.50;1.00;;;;;;4988302;28;20561;-82
2023/05/05 04:19:49;;;;;;;5.90;5.13;;;10.60;1.00;;;;;;4992431;28;20455;-82
2023/05/05 04:22:24;;;;;;;8.60;4.93;;;10.60;1.00;;;;;;4995682;28;20496;-81
2023/05/05 04:24:54;;;;;;;11.10;6.63;;;10.60;1.00;;;;;;4993198;28;20554;-81
2023/05/05 04:27:21;;;;;;;10.00;5.20;;;10.60;1.00;;;;;;4989115;28;20535;-81
2023/05/05 04:29:48;;;;;;;6.17;5.40;;;10.60;1.00;;;;;;4988144;28;20449;-81
2023/05/05 04:32:17;;;;;;;7.33;4.80;;;10.60;1.00;;;;;;4984950;28;20468;-80
2023/05/05 04:34:44;;;;;;;6.70;5.63;;;10.60;1.00;;;;;;4983647;28;20567;-80
2023/05/05 04:37:11;;;;;;;10.47;5.33;;;10.50;1.00;;;;;;4985664;28;20440;-80
2023/05/05 04:39:38;;;;;;;4.83;4.23;;;10.60;1.00;;;;;;4992847;28;20546;-80
2023/05/05 04:42:05;;;;;;;7.77;4.93;;;10.70;1.00;;;;;;4995071;28;20496;-81
2023/05/05 04:44:33;;;;;;;5.03;3.87;;;10.70;1.00;;;;;;4992609;28;20496;-81
2023/05/05 04:47:00;;;;;;;8.13;5.53;;;10.70;1.00;;;;;;4992456;28;20497;-80
2023/05/05 04:49:31;;;;;;;6.97;5.03;;;10.80;1.00;;;;;;4988144;28;20464;-80
2023/05/05 04:51:58;;;;;;;6.30;5.07;;;10.80;1.00;;;;;;4990363;28;20952;-80
2023/05/05 04:54:26;;;;;;;8.60;4.70;;;10.80;1.00;;;;;;4963776;28;21002;-80
2023/05/05 04:56:58;;;;;;;7.63;5.97;;;10.90;1.00;;;;;;4985853;28;20484;-83
2023/05/05 04:59:25;;;;;;;7.67;5.30;;;10.80;1.00;;;;;;4982177;28;20452;-84
2023/05/05 05:01:52;;;;;;;9.23;6.40;;;10.80;1.00;;;;;;4974988;28;20496;-85
2023/05/05 05:04:22;;;;;;;7.67;5.67;;;10.90;1.00;;;;;;4982449;28;20477;-84
2023/05/05 05:06:50;;;;;;;10.10;5.73;;;10.90;1.00;;;;;;4984082;28;21263;-85
2023/05/05 05:09:17;;;;;;;7.87;5.83;;;11.00;1.00;;;;;;4986499;28;21208;-85
2023/05/05 05:11:44;;;;;;;9.90;6.03;;;11.10;1.00;;;;;;4980113;28;20469;-87
2023/05/05 05:14:11;;;;;;;6.83;5.90;;;11.20;1.00;;;;;;4982552;28;20562;-84
2023/05/05 05:16:38;;;;;;;7.67;5.70;;;11.30;1.00;;;;;;4983841;28;20600;-85
2023/05/05 05:19:05;;;;;;;9.57;5.50;;;11.30;1.00;;;;;;4982666;28;20474;-84
2023/05/05 05:21:33;;;;;;;8.13;4.93;;;11.40;1.00;;;;;;4977139;28;20931;-86
2023/05/05 05:24:02;;;;;;;10.60;5.93;;;11.40;1.00;;;;;;4983596;28;20468;-86
2023/05/05 05:26:29;;;;;;;8.03;5.83;;;11.60;1.00;;;;;;4975074;28;20436;-87
2023/05/05 05:28:56;;;;;;;10.30;5.60;;;11.70;1.00;;;;;;4984093;28;20464;-87
2023/05/05 05:31:23;;;;;;;6.37;5.63;;;11.80;1.00;;;;;;4982521;28;20503;-85
2023/05/05 05:33:50;;;;;;;8.60;6.00;;;12.00;1.00;;;;;;4983645;28;20500;-85
2023/05/05 05:36:17;;;;;;;7.57;5.70;;;12.20;1.00;;;;;;4981148;28;20457;-85
2023/05/05 05:38:44;;;;;;;9.43;5.40;;;12.30;1.00;;;;;;4981537;28;20462;-84
2023/05/05 05:41:13;;;;;;;7.07;5.30;;;12.40;1.00;;;;;;4986187;28;20551;-84
2023/05/05 05:43:40;;;;;;;14.20;5.80;;;12.40;1.00;;;;;;4980514;28;20611;-83
2023/05/05 05:46:07;;;;;;;8.53;5.87;;;12.50;1.00;;;;;;4986198;28;20481;-82
2023/05/05 05:48:34;;;;;;;8.47;4.90;;;12.60;1.00;;;;;;4980784;28;20500;-82
2023/05/05 05:51:02;;;;;;;7.80;5.80;;;12.70;1.00;;;;;;4985609;28;20472;-83
2023/05/05 05:53:29;;;;;;;19.80;12.80;;;12.90;1.00;;;;;;4975831;28;20468;-83
2023/05/05 05:55:58;;;;;;;9.73;7.30;;;13.00;1.00;;;;;;4980093;28;20461;-81
2023/05/05 05:58:28;;;;;;;6.50;5.70;;;13.10;1.00;;;;;;4979332;28;20441;-79
2023/05/05 06:00:58;;;;;;;9.60;6.10;;;13.00;1.00;;;;;;4985139;28;20545;-78
2023/05/05 06:03:25;;;;;;;7.43;6.07;;;12.90;1.00;;;;;;4978835;28;20521;-77
2023/05/05 06:05:52;;;;;;;14.10;7.10;;;12.90;1.00;;;;;;4981557;28;20678;-78
2023/05/05 06:08:21;;;;;;;8.30;5.60;;;12.90;1.00;;;;;;4988434;28;20501;-80
2023/05/05 06:10:48;;;;;;;6.97;5.73;;;13.00;1.00;;;;;;4991552;28;20476;-80
2023/05/05 06:13:16;;;;;;;8.90;5.90;;;13.10;1.00;;;;;;4989910;28;20841;-82
2023/05/05 06:15:44;;;;;;;6.90;5.13;;;13.30;1.00;;;;;;4987020;28;20595;-82
2023/05/05 06:18:11;;;;;;;11.60;8.10;;;13.40;1.00;;;;;;4982013;28;20521;-81
2023/05/05 06:20:38;;;;;;;15.00;6.60;;;13.60;1.00;;;;;;4984974;28;20541;-83
2023/05/05 06:23:06;;;;;;;8.27;5.60;;;13.60;1.00;;;;;;4986882;28;20874;-83
2023/05/05 06:25:36;;;;;;;13.40;5.77;;;13.50;1.00;;;;;;4987255;28;21195;-82
2023/05/05 06:28:08;;;;;;;9.40;5.50;;;13.50;1.00;;;;;;4981621;28;20473;-80
2023/05/05 06:30:37;;;;;;;11.17;6.10;;;13.50;1.00;;;;;;4977171;28;20472;-81
2023/05/05 06:33:05;;;;;;;4.93;4.30;;;13.60;1.00;;;;;;4986431;28;20834;-79
2023/05/05 06:35:32;;;;;;;11.97;4.73;;;13.60;1.00;;;;;;4977784;28;20466;-79
2023/05/05 06:37:59;;;;;;;6.93;4.97;;;13.70;1.00;;;;;;4983562;28;20457;-82
2023/05/05 06:40:26;;;;;;;8.70;5.10;;;13.80;1.00;;;;;;4982920;28;20438;-82
2023/05/05 06:42:55;;;;;;;16.73;5.83;;;13.90;1.00;;;;;;4982543;28;20569;-80
2023/05/05 06:45:22;;;;;;;7.13;5.80;;;14.00;1.00;;;;;;4981211;28;20557;-79
2023/05/05 06:47:51;;;;;;;6.17;5.20;;;14.00;1.00;;;;;;4980640;28;20458;-82
2023/05/05 06:50:19;;;;;;;11.27;6.23;;;14.00;1.00;;;;;;4982486;28;20442;-82
2023/05/05 06:52:46;;;;;;;11.80;6.20;;;14.00;1.00;;;;;;4985539;28;20493;-79
2023/05/05 06:55:13;;;;;;;6.77;5.87;;;14.10;1.00;;;;;;4976572;28;20463;-81
2023/05/05 06:57:40;;;;;;;7.43;5.87;;;14.10;1.00;;;;;;4986808;28;20455;-80
2023/05/05 07:00:10;;;;;;;7.10;4.57;;;14.20;1.00;;;;;;4979390;28;20494;-82
2023/05/05 07:02:37;;;;;;;6.50;5.40;;;14.30;1.00;;;;;;4978672;28;20451;-79
2023/05/05 07:05:05;;;;;;;6.83;5.30;;;14.30;1.00;;;;;;4980476;28;20482;-79
2023/05/05 07:07:34;;;;;;;10.43;6.03;;;14.40;1.00;;;;;;4976940;28;20545;-78
2023/05/05 07:10:01;;;;;;;9.53;5.03;;;14.50;1.00;;;;;;4982088;28;20459;-80
2023/05/05 07:12:30;;;;;;;5.33;4.73;;;14.80;1.00;;;;;;4978844;28;20459;-82
2023/05/05 07:14:57;;;;;;;8.30;5.57;;;14.90;1.00;;;;;;4974841;28;20500;-81
2023/05/05 07:17:24;;;;;;;12.57;6.57;;;14.90;1.00;;;;;;4978494;28;20463;-79
2023/05/05 07:19:53;;;;;;;11.73;5.90;;;14.70;1.00;;;;;;4977146;28;20414;-76
2023/05/05 07:22:20;;;;;;;12.03;6.50;;;14.60;1.00;;;;;;4979647;28;20523;-78
2023/05/05 07:24:52;;;;;;;8.77;5.40;;;14.60;1.00;;;;;;4980827;28;20468;-79
2023/05/05 07:27:19;;;;;;;8.23;5.37;;;14.50;1.00;;;;;;4976318;28;20945;-82
2023/05/05 07:29:50;;;;;;;7.97;7.03;;;14.60;1.00;;;;;;4977789;28;20506;-78
2023/05/05 07:32:17;;;;;;;9.83;6.33;;;14.70;1.00;;;;;;4978640;28;20543;-83
2023/05/05 07:34:44;;;;;;;9.60;4.90;;;15.00;1.00;;;;;;4978877;28;20464;-80
2023/05/05 07:37:14;;;;;;;5.57;4.60;;;15.30;1.00;;;;;;4983274;28;20462;-80
2023/05/05 07:39:46;;;;;;;11.23;5.10;;;15.50;1.00;;;;;;4981152;28;20463;-81
2023/05/05 07:42:19;;;;;;;13.23;6.70;;;15.60;1.00;;;;;;4984539;28;20883;-81
2023/05/05 07:44:48;;;;;;;9.47;5.63;;;15.70;1.00;;;;;;4981612;28;20552;-78
2023/05/05 07:47:18;;;;;;;9.07;5.63;;;15.70;1.00;;;;;;4976906;28;20464;-81
2023/05/05 07:49:45;;;;;;;7.40;4.70;;;15.90;1.00;;;;;;4982633;28;20454;-81
2023/05/05 07:52:14;;;;;;;5.80;4.80;;;16.20;1.00;;;;;;4978066;28;20460;-81
2023/05/05 07:54:44;;;;;;;8.60;5.30;;;16.30;1.00;;;;;;4979924;28;21100;-81
2023/05/05 07:57:11;;;;;;;5.93;5.33;;;16.50;1.00;;;;;;4990470;28;20492;-81
2023/05/05 07:59:42;;;;;;;6.73;5.60;;;16.60;1.00;;;;;;4960857;28;20475;-81
2023/05/05 08:02:13;;;;;;;5.80;4.73;;;16.60;1.00;;;;;;4978510;28;20425;-82
2023/05/05 08:04:41;;;;;;;11.00;5.33;;;16.60;1.00;;;;;;4981534;28;20556;-80
2023/05/05 08:07:08;;;;;;;11.30;5.03;;;16.50;1.00;;;;;;4982202;28;20506;-83
2023/05/05 08:09:38;;;;;;;9.30;5.10;;;16.60;1.00;;;;;;4978839;28;20633;-84
2023/05/05 08:12:13;;;;;;;12.87;5.43;;;16.90;1.00;;;;;;4987274;28;20477;-84
2023/05/05 08:14:43;;;;;;;6.87;6.27;;;17.00;1.00;;;;;;4961507;28;20503;-82
2023/05/05 08:17:10;;;;;;;5.90;5.23;;;17.20;1.00;;;;;;4968442;28;20462;-82
2023/05/05 08:19:39;;;;;;;11.63;6.63;;;17.40;1.00;;;;;;4973615;28;20513;-80
2023/05/05 08:22:06;;;;;;;5.80;5.27;;;17.50;1.00;;;;;;4980444;28;20465;-83
2023/05/05 08:24:35;;;;;;;12.13;6.10;;;17.70;1.00;;;;;;4969887;28;20437;-78
2023/05/05 08:27:02;;;;;;;12.20;6.20;;;17.90;1.00;;;;;;4966924;28;20480;-78
2023/05/05 08:29:29;;;;;;;10.27;6.17;;;17.60;1.00;;;;;;4954672;28;20542;-78
2023/05/05 08:32:00;;;;;;;5.47;4.83;;;17.50;1.00;;;;;;4974414;28;20480;-78
2023/05/05 08:34:27;;;;;;;10.80;5.90;;;17.40;1.00;;;;;;4973618;28;20536;-79
2023/05/05 08:36:55;;;;;;;8.53;6.37;;;17.30;1.00;;;;;;4976798;28;20907;-79
2023/05/05 08:39:22;;;;;;;6.20;5.60;;;17.30;1.00;;;;;;4977028;28;21296;-80
2023/05/05 08:41:52;;;;;;;6.20;5.60;;;17.60;1.00;;;;;;4976770;28;20555;-79
2023/05/05 08:44:20;;;;;;;8.10;6.37;;;17.70;1.00;;;;;;4982314;28;20570;-84
2023/05/05 08:47:08;;;;;;;7.97;5.30;;;17.80;1.00;;;;;;4967517;28;20476;-85
2023/05/05 08:49:56;;;;;;;7.70;5.97;;;17.90;1.00;;;;;;4954443;28;20481;-83
2023/05/05 08:52:57;;;;;;;8.90;6.47;;;18.20;1.00;;;;;;4976052;28;20462;-83
2023/05/05 08:55:26;;;;;;;7.80;6.00;;;18.40;1.00;;;;;;4953613;28;20483;-82
2023/05/05 08:58:12;;;;;;;8.03;5.60;;;18.60;1.00;;;;;;4975093;28;20501;-84
2023/05/05 09:00:42;;;;;;;9.43;5.73;;;18.60;1.00;;;;;;4965523;28;20451;-82
2023/05/05 09:03:12;;;;;;;11.87;6.00;;;18.80;1.00;;;;;;4979850;28;20471;-82
2023/05/05 09:05:42;;;;;;;11.23;5.83;;;18.80;1.00;;;;;;4981908;28;21364;-81
2023/05/05 09:08:11;;;;;;;8.00;6.17;;;18.90;1.00;;;;;;4980132;28;20476;-79
2023/05/05 09:10:41;;;;;;;7.53;5.93;;;19.00;1.00;;;;;;4977230;28;20466;-81
2023/05/05 09:13:08;;;;;;;6.10;5.10;;;19.10;1.00;;;;;;4976304;28;20576;-81
2023/05/05 09:15:37;;;;;;;6.73;4.97;;;19.20;1.00;;;;;;4976211;28;21098;-82
2023/05/05 09:18:07;;;;;;;6.70;5.20;;;19.10;1.00;;;;;;4981939;28;20514;-80
2023/05/05 09:20:41;;;;;;;6.50;5.80;;;19.20;1.00;;;;;;4977825;28;21405;-82
2023/05/05 09:23:09;;;;;;;7.93;6.17;;;19.50;1.00;;;;;;4979117;28;20472;-77
2023/05/05 09:25:36;;;;;;;5.73;4.70;;;20.00;1.00;;;;;;4974971;28;20926;-81
2023/05/05 09:28:09;;;;;;;6.27;5.27;;;20.50;1.00;;;;;;4981376;28;20475;-81
2023/05/05 09:30:36;;;;;;;5.90;4.97;;;21.50;1.00;;;;;;4975231;28;20471;-79
2023/05/05 09:33:03;;;;;;;6.93;5.40;;;22.10;1.00;;;;;;4983179;28;20547;-81
2023/05/05 09:35:49;;;;;;;7.60;5.57;;;22.70;1.00;;;;;;4980264;28;20520;-79
2023/05/05 09:38:18;;;;;;;5.87;4.80;;;23.50;1.00;;;;;;4973605;28;20461;-80
2023/05/05 09:40:47;;;;;;;7.97;5.87;;;23.60;1.00;;;;;;4977321;28;20458;-80
2023/05/05 09:43:15;;;;;;;6.93;5.10;;;23.30;1.00;;;;;;4980851;28;20517;-81
2023/05/05 09:45:43;;;;;;;12.23;6.10;;;24.20;1.00;;;;;;4975436;28;20471;-84
2023/05/05 09:48:25;;;;;;;6.00;5.13;;;25.00;1.00;;;;;;4977425;28;20457;-80
2023/05/05 09:50:54;;;;;;;7.50;5.17;;;25.10;1.00;;;;;;4978027;28;20459;-81
2023/05/05 09:53:21;;;;;;;8.23;5.33;;;24.60;1.00;;;;;;4975387;28;20533;-82
2023/05/05 09:55:55;;;;;;;5.87;5.27;;;25.30;1.00;;;;;;4975909;28;20487;-80
2023/05/05 09:58:28;;;;;;;8.70;5.20;;;26.20;1.00;;;;;;4979393;28;20522;-82
2023/05/05 10:00:58;;;;;;;8.10;5.37;;;26.80;1.00;;;;;;4979688;28;20460;-80
2023/05/05 10:03:28;;;;;;;5.47;4.90;;;26.50;1.00;;;;;;4975637;28;20476;-80
2023/05/05 10:05:59;;;;;;;7.00;4.97;;;26.60;1.00;;;;;;4972911;28;20471;-78
2023/05/05 10:08:29;;;;;;;5.03;4.53;;;26.40;1.00;;;;;;4982816;28;20453;-81
2023/05/05 10:10:58;;;;;;;7.57;5.23;;;27.20;1.00;;;;;;4978081;28;20578;-81
2023/05/05 10:13:25;;;;;;;8.53;5.07;;;28.00;1.00;;;;;;4952981;28;20423;-81
2023/05/05 10:15:54;;;;;;;6.43;4.73;;;27.20;1.00;;;;;;4983016;28;20485;-81
2023/05/05 10:18:22;;;;;;;5.57;5.03;;;26.20;1.00;;;;;;4976677;28;20619;-83
2023/05/05 10:20:56;;;;;;;7.77;5.40;;;26.10;1.00;;;;;;4981562;28;20538;-83
2023/05/05 10:23:29;;;;;;;7.10;5.47;;;26.40;1.00;;;;;;4977747;28;20476;-81
2023/05/05 10:26:02;;;;;;;9.10;8.10;;;26.90;1.00;;;;;;4985450;28;20500;-81
2023/05/05 10:28:34;;;;;;;5.87;5.23;;;26.80;1.00;;;;;;4978873;28;20458;-79
2023/05/05 10:31:02;;;;;;;6.40;4.67;;;25.60;1.00;;;;;;4979888;28;20465;-77
2023/05/05 10:33:41;;;;;;;7.53;5.90;;;24.90;1.00;;;;;;4976112;28;20478;-77
2023/05/05 10:36:08;;;;;;;8.73;5.73;;;24.70;1.00;;;;;;4974229;28;22006;-78
2023/05/05 10:38:38;;;;;;;10.50;5.50;;;25.30;1.00;;;;;;4975337;28;20464;-77
2023/05/05 10:41:05;;;;;;;7.93;4.90;;;26.40;1.00;;;;;;4972841;28;20518;-79
2023/05/05 10:43:35;;;;;;;5.97;4.53;;;27.50;1.00;;;;;;4982004;28;20916;-79
2023/05/05 10:46:04;;;;;;;11.23;4.93;;;28.00;1.00;;;;;;4979691;28;21197;-80
2023/05/05 10:48:38;;;;;;;5.03;4.53;;;28.70;1.00;;;;;;4974117;28;20482;-78
2023/05/05 10:51:25;;;;;;;9.00;5.63;;;29.30;1.00;;;;;;4974305;28;20629;-79
2023/05/05 10:54:00;;;;;;;6.33;5.20;;;29.60;1.00;;;;;;4963268;28;20479;-80
2023/05/05 10:56:33;;;;;;;6.20;4.77;;;29.40;1.00;;;;;;4966249;28;20827;-80
2023/05/05 10:59:02;;;;;;;5.80;5.20;;;29.70;1.00;;;;;;4980568;28;22670;-78
2023/05/05 11:01:31;;;;;;;5.77;5.27;;;29.30;1.00;;;;;;4974302;28;20983;-79
2023/05/05 11:04:20;;;;;;;8.80;7.50;;;29.40;1.00;;;;;;4979380;28;20471;-78
2023/05/05 11:07:25;;;;;;;6.23;4.80;;;30.30;1.00;;;;;;4980285;28;20482;-78
2023/05/05 11:09:58;;;;;;;7.43;4.60;;;30.90;1.00;;;;;;4958906;28;20541;-80
2023/05/05 11:12:25;;;;;;;6.73;5.30;;;31.50;1.00;;;;;;4975871;28;20527;-79
2023/05/05 11:15:37;;;;;;;5.10;4.63;;;31.90;1.00;;;;;;4979889;28;20463;-78
2023/05/05 11:18:05;;;;;;;4.70;4.30;;;31.90;1.00;;;;;;4901370;28;20557;-78
2023/05/05 11:21:04;;;;;;;7.77;5.63;;;32.10;1.00;;;;;;4900155;28;21399;-78
2023/05/05 11:23:31;;;;;;;5.33;4.80;;;31.70;1.00;;;;;;4950452;28;20494;-79
2023/05/05 11:26:00;;;;;;;6.43;4.77;;;31.20;1.00;;;;;;4970811;28;21609;-79
2023/05/05 11:28:29;;;;;;;8.10;4.77;;;31.20;1.00;;;;;;4955032;28;20487;-77
2023/05/05 11:31:16;;;;;;;8.13;5.00;;;30.10;1.00;;;;;;4971787;28;20452;-77
2023/05/05 11:33:43;;;;;;;9.47;5.07;;;29.90;1.00;;;;;;4983774;28;20495;-78
2023/05/05 11:36:11;;;;;;;5.77;4.47;;;30.20;1.00;;;;;;4981867;28;20456;-76
2023/05/05 11:38:53;;;;;;;7.47;4.73;;;30.30;1.00;;;;;;4982947;28;20546;-78
2023/05/05 11:41:39;;;;;;;6.77;4.53;;;29.60;1.00;;;;;;4979022;28;20460;-77
2023/05/05 11:44:10;;;;;;;9.20;5.00;;;29.40;1.00;;;;;;4988909;28;20576;-78
2023/05/05 11:46:40;;;;;;;8.73;4.63;;;28.80;1.00;;;;;;4989824;28;23489;-77
2023/05/05 11:49:08;;;;;;;5.10;4.60;;;28.40;1.00;;;;;;4978768;28;20905;-78
2023/05/05 11:51:35;;;;;;;6.40;4.73;;;27.30;1.00;;;;;;4989440;28;20507;-79
2023/05/05 11:54:03;;;;;;;6.03;4.30;;;26.50;1.00;;;;;;4984489;28;20546;-78
2023/05/05 11:56:31;;;;;;;8.27;4.80;;;26.50;1.00;;;;;;4983725;28;20446;-77
2023/05/05 11:59:14;;;;;;;6.97;4.87;;;26.40;1.00;;;;;;4985418;28;20476;-78
2023/05/05 12:01:42;;;;;;;11.23;6.03;;;26.80;1.00;;;;;;4981359;28;20466;-78
2023/05/05 12:04:12;;;;;;;16.30;5.37;;;27.00;1.00;;;;;;4980397;28;20469;-78
2023/05/05 12:06:39;;;;;;;8.43;5.87;;;27.20;1.00;;;;;;4984840;28;20514;-78
2023/05/05 12:09:07;;;;;;;6.57;4.30;;;27.80;1.00;;;;;;4982328;28;20493;-79
2023/05/05 12:11:36;;;;;;;7.17;6.17;;;28.70;1.00;;;;;;4983231;28;20461;-79
2023/05/05 12:14:10;;;;;;;4.20;3.80;;;28.50;1.00;;;;;;4984374;28;20461;-78
2023/05/05 12:16:38;;;;;;;6.23;5.60;;;29.30;1.00;;;;;;4951564;28;20461;-77
2023/05/05 12:19:07;;;;;;;4.80;4.13;;;29.50;1.00;;;;;;4985794;28;20566;-77
2023/05/05 12:21:35;;;;;;;4.90;4.30;;;30.00;1.00;;;;;;4988189;28;20491;-78
2023/05/05 12:24:02;;;;;;;5.13;4.27;;;30.30;1.00;;;;;;4981883;28;20460;-77
2023/05/05 12:26:30;;;;;;;5.30;4.23;;;30.90;1.00;;;;;;4982683;28;20463;-78
2023/05/05 12:29:00;;;;;;;7.73;3.77;;;30.60;1.00;;;;;;4985423;28;20467;-78
2023/05/05 12:31:37;;;;;;;5.70;4.23;;;30.50;1.00;;;;;;4979624;28;20482;-78
2023/05/05 12:34:06;;;;;;;7.00;3.63;;;30.70;1.00;;;;;;4981368;28;20439;-78
2023/05/05 12:36:34;;;;;;;4.70;3.57;;;31.00;1.00;;;;;;4980808;28;20472;-78
2023/05/05 12:39:03;;;;;;;6.53;4.10;;;31.40;1.00;;;;;;4981990;28;20561;-77
2023/05/05 12:41:30;;;;;;;6.77;4.17;;;31.20;1.00;;;;;;4985278;28;20440;-77
2023/05/05 12:43:59;;;;;;;4.67;4.20;;;30.60;1.00;;;;;;4982388;28;20479;-77
2023/05/05 12:46:28;;;;;;;6.90;4.37;;;30.50;1.00;;;;;;4982395;28;20653;-78
2023/05/05 12:49:03;;;;;;;4.33;3.90;;;30.90;1.00;;;;;;4983359;28;20466;-78
2023/05/05 12:51:31;;;;;;;6.20;3.90;;;31.90;1.00;;;;;;4982386;28;20454;-78
2023/05/05 12:54:03;;;;;;;3.93;3.40;;;32.80;1.00;;;;;;4983229;28;20555;-78
2023/05/05 12:56:32;;;;;;;4.57;3.60;;;33.10;1.00;;;;;;4982305;28;20518;-77
2023/05/05 12:59:01;;;;;;;4.10;3.70;;;33.10;1.00;;;;;;4982241;28;20859;-78
2023/05/05 13:01:29;;;;;;;4.40;3.33;;;32.10;1.00;;;;;;4982756;28;20477;-78
2023/05/05 13:04:10;;;;;;;4.50;4.10;;;31.50;1.00;;;;;;4980329;28;20544;-77
2023/05/05 13:06:38;;;;;;;4.40;3.80;;;31.30;1.00;;;;;;4983457;28;20440;-79
2023/05/05 13:09:05;;;;;;;5.30;3.80;;;31.50;1.00;;;;;;4986393;28;20475;-78
2023/05/05 13:11:36;;;;;;;5.00;3.73;;;32.20;1.00;;;;;;4983440;28;20462;-77
2023/05/05 13:14:05;;;;;;;4.30;3.90;;;32.40;1.00;;;;;;4981508;28;20470;-78